Date,TemperatureHighF,TemperatureAvgF,TemperatureLowF,DewpointHighF,DewpointAvgF,DewpointLowF,HumidityHigh,HumidityAvg,HumidityLow,PressureMaxIn,PressureMinIn,WindSpeedMaxMPH,WindSpeedAvgMPH,GustSpeedMaxMPH,PrecipitationSumIn
2013-3-1,34.0,29.9,27.0,32.0,25.6,21.0,93,84,77,30.10,29.93,12,7,17,0.01
2013-3-2,28.0,27.1,26.0,23.0,21.2,19.0,85,78,73,30.09,30.05,9,6,15,0.00
2013-3-3,32.0,27.1,24.0,21.0,18.5,16.0,84,70,52,30.08,30.02,10,4,19,0.00
2013-3-4,37.0,29.7,19.0,26.0,21.4,16.0,90,72,52,30.16,30.05,4,1,8,0.00
2013-3-5,33.0,30.9,28.0,30.0,27.0,24.0,96,85,77,30.09,29.69,17,11,26,0.00
2013-3-6,39.0,31.8,28.0,30.0,27.4,24.0,96,84,71,30.23,29.72,19,8,29,0.01
2013-3-7,39.0,34.9,32.0,33.0,29.0,25.0,90,79,64,30.38,30.21,6,2,12,0.01
2013-3-8,44.0,33.7,24.0,30.0,26.3,23.0,95,75,56,30.49,30.38,6,1,9,0.00
2013-3-9,48.0,38.4,27.0,39.0,32.5,25.0,94,80,63,30.40,29.98,8,3,13,0.05
2013-3-10,64.0,53.7,45.0,48.0,41.0,35.0,72,62,49,29.99,29.76,17,7,25,0.05
2013-3-11,57.0,49.4,37.0,50.0,44.4,33.0,94,83,61,29.77,29.49,23,15,36,0.28
2013-3-12,37.0,34.3,33.0,34.0,29.7,27.0,92,83,72,29.96,29.75,17,11,26,0.04
2013-3-13,33.0,29.3,26.0,30.0,24.0,19.0,94,81,68,30.27,29.93,14,9,26,0.00
2013-3-14,40.0,31.1,23.0,28.0,22.7,18.0,83,71,51,30.31,30.12,12,5,21,0.00
2013-3-15,47.0,38.2,31.0,41.0,34.2,25.0,96,86,75,30.13,29.78,13,6,18,0.10
2013-3-16,42.0,35.1,32.0,41.0,33.6,29.0,98,94,88,30.05,29.65,12,6,21,0.10
2013-3-17,32.0,30.4,28.0,29.0,24.9,22.0,88,79,74,30.22,30.04,15,8,23,0.00
2013-3-18,38.0,32.7,28.0,37.0,30.5,24.0,98,92,81,30.11,29.54,17,10,32,0.04
2013-3-19,36.0,29.9,24.0,34.0,20.9,15.0,92,69,52,30.00,29.71,25,15,39,0.01
2013-3-20,31.0,27.0,20.0,22.0,16.4,10.0,78,64,53,30.00,29.93,14,8,25,0.00
2013-3-21,32.0,24.6,18.0,22.0,17.8,12.0,88,76,62,30.00,29.94,12,5,23,0.00
2013-3-22,42.0,30.5,20.0,24.0,19.8,16.0,87,67,40,30.04,29.97,11,4,20,0.00
2013-3-23,43.0,31.9,22.0,30.0,24.6,20.0,93,75,54,30.09,29.99,8,2,13,0.00
2013-3-24,32.0,28.8,27.0,28.0,25.1,23.0,89,86,82,30.00,29.81,12,6,20,0.00